Terminal Aerodrome Forecast
Issued by NWS Greer, SC

Home | Current Version | Previous Version | Text Only | Print | Product List | Glossary On
Versions: 1 2 3 4 5 6 7 8 9 10 11 12 13 14 15 16 17
631
FTUS42 KGSP 131720
TAFGSP
TAF
KGSP 131720Z 1318/1418 34008KT P6SM SKC
      TEMPO 1318/1322 35015G23KT
     FM140000 02007KT P6SM SKC
     FM141100 06005KT P6SM BKN100
     FM141400 08007KT P6SM BKN080=

USA.gov is the U.S. government's official web portal to all federal, state and local government web resources and services.